Aviation Digital Data Service (ADDS)

Output produced by METARs form (0510 UTC 21 September 2017)
found at http://www.aviationweather.gov/adds/metars/
 
NZAA 210500Z AUTO 26011KT 9999 NCD 15/08 Q1006 NOSIG
TAF NZAA 202303Z 2100/2200 33010KT 9999 -SHRA SCT035 
     BECMG 2100/2102 27008KT 
     TEMPO 2110/2121 6000 RA FEW020TCU 
     BECMG 2112/2114 02010KT 
     BECMG 2117/2119 14005KT
       
NZCH 210500Z AUTO 09007KT 9999 -RA FEW011/// SCT035/// OVC050/// 11/10 Q1007 REDZ TEMPO 6000 RA
TAF NZCH 202302Z 2100/2200 08015KT 9999 -RA SCT015 BKN050 
     TEMPO 2102/2104 5000 RA BKN010 
     FM210800 06005KT 9999 -RA SCT010 BKN020 
     TEMPO 2108/2119 4000 RADZ BKN008 
     TEMPO 2119/2200 6000 RADZ BKN010 
     BECMG 2122/2200 06010KT
       
NZOH 210400Z 28012KT 5000 +RA SCT008 OVC015 11/10 Q1006 BECMG FM0430 VRB02KT 9999 -RA SCT040 BKN060
NZWN 210500Z AUTO 23009KT 9999 SCT025/// BKN060/// 13/10 Q1006 NOSIG
TAF NZWN 202303Z 2100/2200 02010KT 9999 -RA BKN030 
     BECMG 2106/2108 16005KT 
     BECMG 2113/2115 18015G25KT 
     TEMPO 2113/2117 4000 RA BKN006 
     BECMG 2117/2119 16012KT 
     TEMPO 2120/2123 6000 RA